Time;durP1;ratioP1;P1;durP2;ratioP2;P2;SDS_P1;SDS_P2;PMS_P1;PMS_P2;Temp;Humidity;BMP_temperature;BMP_pressure;BME280_temperature;BME280_humidity;BME280_pressure;Samples;Min_cycle;Max_cycle;Signal;HPM_P1;HPM_P2
2024/02/25 00:01:20;;;;;;;;;;;;;;;18.98;60.08;100909.03;7389411;19;1801;-75
2024/02/25 00:03:48;;;;;;;;;;;;;;;18.91;60.29;100903.38;7388724;19;1602;-75
2024/02/25 00:06:17;;;;;;;;;;;;;;;18.99;59.92;100902.72;7388675;19;1939;-75
2024/02/25 00:08:45;;;;;;;;;;;;;;;18.94;59.97;100913.84;7388562;19;1535;-75
2024/02/25 00:11:16;;;;;;;;;;;;;;;18.85;60.05;100906.56;7388670;19;1809;-75
2024/02/25 00:13:44;;;;;;;;;;;;;;;18.67;60.68;100892.88;7387127;19;1586;-75
2024/02/25 00:16:13;;;;;;;;;;;;;;;18.58;61.16;100910.59;7387566;19;1525;-75
2024/02/25 00:18:41;;;;;;;;;;;;;;;18.72;60.90;100901.38;7386878;19;1822;-75
2024/02/25 00:21:09;;;;;;;;;;;;;;;18.80;60.49;100915.00;7388603;19;1582;-75
2024/02/25 00:23:38;;;;;;;;;;;;;;;18.84;60.14;100908.41;7390162;19;1488;-75
2024/02/25 00:26:06;;;;;;;;;;;;;;;18.90;60.15;100904.34;7376188;19;1291;-75
2024/02/25 00:28:37;;;;;;;;;;;;;;;18.92;59.90;100898.84;7388763;19;1513;-75
2024/02/25 00:31:06;;;;;;;;;;;;;;;18.86;60.17;100905.56;7386927;19;1858;-75
2024/02/25 00:33:34;;;;;;;;;;;;;;;19.02;59.95;100913.16;7388640;19;1577;-76
2024/02/25 00:36:02;;;;;;;;;;;;;;;18.96;59.88;100901.16;7393952;19;1805;-76
2024/02/25 00:38:31;;;;;;;;;;;;;;;18.92;59.80;100886.31;7394071;19;1859;-75
2024/02/25 00:40:59;;;;;;;;;;;;;;;18.87;60.15;100885.84;7396408;19;1756;-75
2024/02/25 00:43:28;;;;;;;;;;;;;;;18.62;60.91;100870.97;7394062;19;1239;-76
2024/02/25 00:45:58;;;;;;;;;;;;;;;18.76;60.71;100883.19;7395342;19;1599;-76
2024/02/25 00:48:27;;;;;;;;;;;;;;;18.88;60.29;100887.56;7393602;19;1627;-76
2024/02/25 00:50:55;;;;;;;;;;;;;;;18.89;59.92;100881.22;7395852;19;1591;-76
2024/02/25 00:53:24;;;;;;;;;;;;;;;18.91;59.91;100876.56;7394502;19;1381;-76
2024/02/25 00:55:55;;;;;;;;;;;;;;;18.89;60.16;100875.84;7393342;19;1472;-76
2024/02/25 00:58:23;;;;;;;;;;;;;;;18.86;60.14;100865.38;7392689;19;1845;-75
2024/02/25 01:00:51;;;;;;;;;;;;;;;18.83;60.30;100868.34;7396160;19;1422;-74
2024/02/25 01:03:22;;;;;;;;;;;;;;;18.94;59.93;100868.28;7398085;19;1492;-75
2024/02/25 01:05:51;;;;;;;;;;;;;;;18.89;60.25;100862.44;7396082;19;1675;-75
2024/02/25 01:08:19;;;;;;;;;;;;;;;18.61;60.96;100859.44;7395559;19;1748;-75
2024/02/25 01:10:48;;;;;;;;;;;;;;;18.51;61.47;100853.16;7396678;19;1643;-75
2024/02/25 01:13:17;;;;;;;;;;;;;;;18.68;61.03;100851.69;7396158;19;1748;-75
2024/02/25 01:15:45;;;;;;;;;;;;;;;18.74;60.67;100859.25;7394758;19;1498;-76
2024/02/25 01:18:13;;;;;;;;;;;;;;;18.84;60.22;100848.59;7396789;19;1852;-75
2024/02/25 01:20:44;;;;;;;;;;;;;;;18.89;60.35;100865.13;7397258;19;1926;-74
2024/02/25 01:23:13;;;;;;;;;;;;;;;18.91;60.36;100857.81;7399471;19;1496;-76
2024/02/25 01:25:41;;;;;;;;;;;;;;;18.89;60.24;100865.13;7394396;19;1555;-77
2024/02/25 01:28:10;;;;;;;;;;;;;;;18.88;60.25;100866.13;7386860;19;1480;-75
2024/02/25 01:30:38;;;;;;;;;;;;;;;18.60;60.97;100879.16;7392389;19;1568;-75
2024/02/25 01:33:07;;;;;;;;;;;;;;;18.57;61.35;100881.25;7393746;19;1376;-75
2024/02/25 01:35:35;;;;;;;;;;;;;;;18.73;60.94;100878.13;7395570;19;1920;-75
2024/02/25 01:38:06;;;;;;;;;;;;;;;18.84;60.28;100864.66;7399163;19;1864;-75
2024/02/25 01:40:36;;;;;;;;;;;;;;;18.91;60.07;100871.22;7403457;19;947;-75
2024/02/25 01:43:11;;;;;;;;;;;;;;;18.88;60.22;100876.84;7403724;19;1924;-76
2024/02/25 01:45:39;;;;;;;;;;;;;;;18.94;60.27;100884.34;7402177;19;1410;-75
2024/02/25 01:48:09;;;;;;;;;;;;;;;18.89;60.11;100865.13;7403361;19;1132;-75
2024/02/25 01:50:39;;;;;;;;;;;;;;;18.86;60.38;100871.63;7403529;19;990;-75
2024/02/25 01:53:10;;;;;;;;;;;;;;;18.91;60.17;100881.09;7405453;19;1849;-75
2024/02/25 01:55:39;;;;;;;;;;;;;;;18.59;60.94;100866.75;7405383;19;1528;-75
2024/02/25 01:58:08;;;;;;;;;;;;;;;18.54;61.52;100874.31;7406244;19;1861;-75
2024/02/25 02:00:37;;;;;;;;;;;;;;;18.67;60.91;100853.53;7402999;19;1782;-75
2024/02/25 02:03:06;;;;;;;;;;;;;;;18.80;60.65;100855.19;7403506;19;1302;-75
2024/02/25 02:05:34;;;;;;;;;;;;;;;18.82;60.56;100851.44;7399131;19;1748;-75
2024/02/25 02:08:03;;;;;;;;;;;;;;;18.84;60.51;100861.97;7401615;19;1279;-75
2024/02/25 02:10:34;;;;;;;;;;;;;;;18.63;60.78;100853.94;7402964;19;1505;-75
2024/02/25 02:13:05;;;;;;;;;;;;;;;18.74;60.86;100863.72;7399890;19;1883;-75
2024/02/25 02:15:33;;;;;;;;;;;;;;;19.35;59.28;100857.59;7403350;19;984;-75
2024/02/25 02:18:03;;;;;;;;;;;;;;;19.84;58.09;100864.81;7403146;19;1865;-75
2024/02/25 02:20:32;;;;;;;;;;;;;;;19.89;58.25;100871.59;7402489;19;1251;-75
2024/02/25 02:23:02;;;;;;;;;;;;;;;20.09;57.61;100867.94;7401153;19;1422;-75
2024/02/25 02:25:31;;;;;;;;;;;;;;;20.12;57.44;100853.41;7398524;19;1762;-75
2024/02/25 02:27:59;;;;;;;;;;;;;;;20.18;57.21;100861.75;7389996;19;1594;-74
2024/02/25 02:30:28;;;;;;;;;;;;;;;20.18;57.44;100855.53;7398147;19;1622;-75
2024/02/25 02:32:56;;;;;;;;;;;;;;;20.20;57.35;100853.53;7397876;19;1657;-76
2024/02/25 02:35:24;;;;;;;;;;;;;;;20.24;57.24;100855.78;7396251;19;1547;-75
2024/02/25 02:37:53;;;;;;;;;;;;;;;20.24;57.42;100850.44;7392889;19;1619;-76
2024/02/25 02:40:24;;;;;;;;;;;;;;;20.21;57.14;100841.81;7393992;19;1838;-76
2024/02/25 02:42:53;;;;;;;;;;;;;;;20.22;57.34;100857.78;7395131;19;1624;-76
2024/02/25 02:45:21;;;;;;;;;;;;;;;20.30;57.32;100866.97;7394432;19;1528;-75
2024/02/25 02:47:50;;;;;;;;;;;;;;;20.29;57.07;100851.84;7395620;19;1484;-76
2024/02/25 02:50:18;;;;;;;;;;;;;;;20.36;57.12;100858.34;7394460;19;1445;-75
2024/02/25 02:52:47;;;;;;;;;;;;;;;20.39;57.13;100863.41;7393384;19;1405;-75
2024/02/25 02:55:15;;;;;;;;;;;;;;;20.41;56.91;100867.69;7390969;19;1244;-76
2024/02/25 02:57:46;;;;;;;;;;;;;;;20.44;56.89;100866.53;7391484;19;1609;-76
2024/02/25 03:00:15;;;;;;;;;;;;;;;20.45;57.00;100870.91;7389860;19;1864;-75
2024/02/25 03:02:43;;;;;;;;;;;;;;;20.41;57.15;100881.13;7389795;19;1327;-75
2024/02/25 03:05:12;;;;;;;;;;;;;;;20.48;56.89;100859.88;7390696;19;1484;-75
2024/02/25 03:07:41;;;;;;;;;;;;;;;20.49;56.82;100869.63;7390665;19;1564;-75
2024/02/25 03:10:13;;;;;;;;;;;;;;;20.44;57.13;100871.91;7388494;19;1908;-76
2024/02/25 03:12:41;;;;;;;;;;;;;;;20.49;56.91;100871.47;7389895;19;1637;-76
2024/02/25 03:15:13;;;;;;;;;;;;;;;20.49;56.89;100875.00;7389753;19;1617;-75
2024/02/25 03:17:41;;;;;;;;;;;;;;;20.59;56.74;100848.16;7389755;19;1310;-76
2024/02/25 03:20:10;;;;;;;;;;;;;;;20.65;56.41;100864.56;7387806;19;1849;-76
2024/02/25 03:22:39;;;;;;;;;;;;;;;20.60;56.83;100844.50;7389812;19;1519;-75
2024/02/25 03:25:08;;;;;;;;;;;;;;;20.62;56.75;100859.47;7387345;19;1481;-75
2024/02/25 03:27:37;;;;;;;;;;;;;;;20.63;56.91;100871.06;7376593;19;1460;-75
2024/02/25 03:30:07;;;;;;;;;;;;;;;20.61;56.74;100863.16;7389918;19;1674;-75
2024/02/25 03:32:37;;;;;;;;;;;;;;;20.65;56.77;100869.06;7387206;19;1472;-75
2024/02/25 03:35:06;;;;;;;;;;;;;;;20.61;56.80;100857.78;7388860;19;1399;-75
2024/02/25 03:37:34;;;;;;;;;;;;;;;20.35;57.44;100854.81;7385707;19;1622;-75
2024/02/25 03:40:03;;;;;;;;;;;;;;;20.24;57.60;100854.97;7386300;19;1841;-75
2024/02/25 03:42:31;;;;;;;;;;;;;;;20.22;57.93;100863.16;7388445;19;1216;-75
2024/02/25 03:44:59;;;;;;;;;;;;;;;20.17;58.07;100870.75;7388853;19;1509;-75
2024/02/25 03:47:28;;;;;;;;;;;;;;;20.13;58.19;100860.44;7387720;19;1373;-75
2024/02/25 03:49:59;;;;;;;;;;;;;;;20.09;58.16;100862.56;7388700;19;1517;-76
2024/02/25 03:52:27;;;;;;;;;;;;;;;20.10;58.37;100858.06;7386269;19;1709;-75
2024/02/25 03:54:55;;;;;;;;;;;;;;;20.08;58.21;100871.63;7390146;19;1493;-75
2024/02/25 03:57:24;;;;;;;;;;;;;;;20.15;58.06;100863.84;7388040;19;1444;-76
2024/02/25 03:59:52;;;;;;;;;;;;;;;20.10;58.26;100872.34;7387838;19;1871;-75
2024/02/25 04:02:20;;;;;;;;;;;;;;;19.91;58.67;100891.94;7387721;19;1496;-75
2024/02/25 04:04:49;;;;;;;;;;;;;;;19.78;58.67;100889.53;7385331;19;1421;-76
2024/02/25 04:07:20;;;;;;;;;;;;;;;19.68;58.91;100896.66;7387724;19;1359;-76
2024/02/25 04:09:48;;;;;;;;;;;;;;;19.56;59.15;100879.81;7386873;19;1739;-76
2024/02/25 04:12:16;;;;;;;;;;;;;;;19.48;59.25;100896.59;7395257;19;1579;-75
2024/02/25 04:14:44;;;;;;;;;;;;;;;19.47;59.18;100897.56;7394760;19;1497;-76
2024/02/25 04:17:13;;;;;;;;;;;;;;;19.44;59.26;100895.16;7393060;19;1820;-76
2024/02/25 04:19:45;;;;;;;;;;;;;;;19.36;59.26;100902.16;7394019;19;1851;-75
2024/02/25 04:22:13;;;;;;;;;;;;;;;19.31;59.53;100899.91;7392452;19;1678;-76
2024/02/25 04:24:44;;;;;;;;;;;;;;;19.31;59.37;100899.91;7395961;19;1269;-75
2024/02/25 04:27:13;;;;;;;;;;;;;;;19.31;59.44;100899.91;7383999;19;1287;-75
2024/02/25 04:29:43;;;;;;;;;;;;;;;19.30;59.30;100906.25;7393663;19;1565;-75
2024/02/25 04:32:12;;;;;;;;;;;;;;;19.20;59.38;100897.31;7394271;19;1712;-75
2024/02/25 04:34:40;;;;;;;;;;;;;;;19.10;60.03;100885.69;7394092;19;1774;-75
2024/02/25 04:37:09;;;;;;;;;;;;;;;19.34;59.65;100902.34;7393358;19;1725;-75
2024/02/25 04:39:38;;;;;;;;;;;;;;;19.37;59.78;100904.72;7393323;19;1841;-75
2024/02/25 04:42:09;;;;;;;;;;;;;;;19.49;59.74;100910.84;7395490;19;1540;-76
2024/02/25 04:44:38;;;;;;;;;;;;;;;19.62;59.44;100924.03;7392078;19;1388;-75
2024/02/25 04:47:06;;;;;;;;;;;;;;;19.69;59.06;100930.53;7395016;19;1544;-75
2024/02/25 04:49:35;;;;;;;;;;;;;;;19.75;59.01;100962.22;7393088;19;1523;-75
2024/02/25 04:52:03;;;;;;;;;;;;;;;19.79;58.91;100928.75;7394132;19;1497;-75
2024/02/25 04:54:31;;;;;;;;;;;;;;;19.80;58.75;100941.22;7392665;19;1606;-75
2024/02/25 04:57:00;;;;;;;;;;;;;;;19.79;58.82;100927.94;7390297;19;1554;-75
2024/02/25 04:59:31;;;;;;;;;;;;;;;19.84;58.85;100931.91;7392975;19;1880;-75
2024/02/25 05:01:59;;;;;;;;;;;;;;;19.86;58.65;100932.59;7393705;19;1207;-75
2024/02/25 05:04:27;;;;;;;;;;;;;;;19.81;58.69;100934.84;7393933;19;1580;-75
2024/02/25 05:06:55;;;;;;;;;;;;;;;19.85;58.65;100919.31;7394727;19;1476;-75
2024/02/25 05:09:24;;;;;;;;;;;;;;;19.86;58.74;100937.97;7393883;19;1500;-75
2024/02/25 05:11:52;;;;;;;;;;;;;;;19.86;58.62;100937.97;7393615;19;1786;-75
2024/02/25 05:14:21;;;;;;;;;;;;;;;19.86;58.52;100948.72;7392746;19;1405;-75
2024/02/25 05:16:51;;;;;;;;;;;;;;;19.90;58.55;100943.09;7392209;19;2334;-75
2024/02/25 05:19:20;;;;;;;;;;;;;;;19.84;58.79;100933.75;7393107;19;1865;-76
2024/02/25 05:21:48;;;;;;;;;;;;;;;19.88;58.66;100935.16;7390717;19;1361;-75
2024/02/25 05:24:18;;;;;;;;;;;;;;;19.92;58.63;100938.44;7393737;19;1497;-76
2024/02/25 05:26:47;;;;;;;;;;;;;;;20.05;58.33;100945.25;7392276;19;1507;-75
2024/02/25 05:29:15;;;;;;;;;;;;;;;20.07;58.04;100931.66;7376282;19;1555;-76
2024/02/25 05:31:43;;;;;;;;;;;;;;;20.16;58.03;100946.94;7388734;19;1525;-76
2024/02/25 05:34:14;;;;;;;;;;;;;;;20.22;57.80;100964.34;7393712;19;1096;-76
2024/02/25 05:36:43;;;;;;;;;;;;;;;20.23;57.99;100961.53;7390003;19;1512;-76
2024/02/25 05:39:11;;;;;;;;;;;;;;;20.27;58.09;100957.56;7392513;19;1843;-76
2024/02/25 05:41:40;;;;;;;;;;;;;;;20.25;57.93;100970.28;7392544;19;1902;-77
2024/02/25 05:44:08;;;;;;;;;;;;;;;20.15;58.30;100974.78;7393282;19;1732;-77
2024/02/25 05:46:36;;;;;;;;;;;;;;;19.78;58.68;100987.97;7391956;19;1587;-76
2024/02/25 05:49:05;;;;;;;;;;;;;;;19.66;58.41;100968.38;7389947;19;1453;-76
2024/02/25 05:51:36;;;;;;;;;;;;;;;19.60;58.98;100976.97;7390906;19;1757;-76
2024/02/25 05:54:05;;;;;;;;;;;;;;;19.56;59.03;100983.59;7392142;19;1235;-76
2024/02/25 05:56:33;;;;;;;;;;;;;;;19.41;59.45;100986.59;7390022;19;1638;-77
2024/02/25 05:59:01;;;;;;;;;;;;;;;19.31;59.62;100979.50;7392217;19;1606;-76
2024/02/25 06:01:33;;;;;;;;;;;;;;;19.20;59.91;100993.81;7391029;19;1809;-76
2024/02/25 06:04:02;;;;;;;;;;;;;;;19.22;59.82;100991.88;7393714;19;1402;-76
2024/02/25 06:06:30;;;;;;;;;;;;;;;18.46;59.89;100895.53;7392361;19;1536;-76
2024/02/25 06:09:02;;;;;;;;;;;;;;;19.22;59.90;101018.69;7392005;19;1493;-76
2024/02/25 06:11:31;;;;;;;;;;;;;;;19.58;58.93;101014.66;7390368;19;2395;-76
2024/02/25 06:13:59;;;;;;;;;;;;;;;19.56;59.04;101022.00;7392998;19;1425;-76
2024/02/25 06:16:32;;;;;;;;;;;;;;;19.60;58.80;101015.38;7390231;19;1830;-76
2024/02/25 06:19:00;;;;;;;;;;;;;;;19.68;59.01;101034.34;7394907;19;1703;-75
2024/02/25 06:21:29;;;;;;;;;;;;;;;19.62;59.27;101005.38;7391208;19;1849;-76
2024/02/25 06:23:57;;;;;;;;;;;;;;;19.65;59.39;101020.34;7392603;19;1865;-76
2024/02/25 06:26:28;;;;;;;;;;;;;;;19.68;59.44;101010.19;7390947;19;1201;-76
2024/02/25 06:28:58;;;;;;;;;;;;;;;19.67;59.31;101016.53;7383569;19;1533;-75
2024/02/25 06:31:26;;;;;;;;;;;;;;;19.68;59.37;101023.59;7389333;19;1832;-76
2024/02/25 06:33:55;;;;;;;;;;;;;;;19.66;59.42;101016.69;7391745;19;1500;-76
2024/02/25 06:36:23;;;;;;;;;;;;;;;19.65;59.39;101031.91;7391795;19;1538;-76
2024/02/25 06:38:51;;;;;;;;;;;;;;;19.61;59.40;101013.53;7393809;19;1298;-76
2024/02/25 06:41:20;;;;;;;;;;;;;;;19.67;59.43;101027.25;7390171;19;1858;-76
2024/02/25 06:43:52;;;;;;;;;;;;;;;19.67;59.59;101016.53;7386582;19;1390;-75
2024/02/25 06:46:21;;;;;;;;;;;;;;;19.67;59.37;101013.00;7388247;19;1466;-76
2024/02/25 06:48:49;;;;;;;;;;;;;;;19.67;59.47;101018.38;7387628;19;2386;-77
2024/02/25 06:51:22;;;;;;;;;;;;;;;19.70;59.51;101012.75;7388762;19;1545;-77
2024/02/25 06:53:51;;;;;;;;;;;;;;;19.71;59.49;101029.69;6868161;19;10000008;-75
2024/02/25 06:56:19;;;;;;;;;;;;;;;19.71;59.49;101027.88;7382362;19;1196;-75
2024/02/25 06:58:47;;;;;;;;;;;;;;;19.77;59.42;101030.03;7382820;19;1492;-76
2024/02/25 07:01:19;;;;;;;;;;;;;;;19.76;59.33;101016.75;7379639;19;1876;-76
2024/02/25 07:03:48;;;;;;;;;;;;;;;19.76;59.49;101022.13;7381986;19;1885;-76
2024/02/25 07:06:16;;;;;;;;;;;;;;;19.78;59.29;101021.00;7381717;19;1627;-77
2024/02/25 07:08:44;;;;;;;;;;;;;;;19.79;59.36;101027.22;7382500;19;1481;-76
2024/02/25 07:11:17;;;;;;;;;;;;;;;19.82;59.40;101005.50;7380326;19;2531;-77
2024/02/25 07:13:46;;;;;;;;;;;;;;;19.81;59.24;101018.03;7382764;19;1516;-76
2024/02/25 07:16:14;;;;;;;;;;;;;;;19.80;59.33;101016.34;7381555;19;1497;-76
2024/02/25 07:18:45;;;;;;;;;;;;;;;19.79;59.37;101019.16;7384055;19;1638;-76
2024/02/25 07:21:14;;;;;;;;;;;;;;;19.79;59.36;101016.47;7383307;19;1860;-76
2024/02/25 07:23:43;;;;;;;;;;;;;;;19.80;59.28;101008.31;7385194;19;1682;-76
2024/02/25 07:26:12;;;;;;;;;;;;;;;19.78;59.42;100994.16;7384542;19;1564;-77
2024/02/25 07:28:42;;;;;;;;;;;;;;;19.78;59.35;100996.84;7372802;19;1908;-76
2024/02/25 07:31:14;;;;;;;;;;;;;;;19.78;59.26;100982.59;7383835;19;1483;-76
2024/02/25 07:33:46;;;;;;;;;;;;;;;19.81;59.38;100972.41;7383685;19;1731;-76
2024/02/25 07:36:14;;;;;;;;;;;;;;;19.78;59.29;100958.44;7380829;19;2351;-76
2024/02/25 07:38:43;;;;;;;;;;;;;;;19.83;59.07;100946.28;7383786;19;1646;-77
2024/02/25 07:41:11;;;;;;;;;;;;;;;19.85;59.03;100940.78;7382057;19;1837;-76
2024/02/25 07:43:40;;;;;;;;;;;;;;;19.87;59.07;100944.19;7385044;19;1073;-75
2024/02/25 07:46:09;;;;;;;;;;;;;;;19.86;59.03;100945.19;7388312;19;1564;-75
2024/02/25 07:48:37;;;;;;;;;;;;;;;19.86;59.24;100948.72;7392180;19;1596;-75
2024/02/25 07:51:08;;;;;;;;;;;;;;;19.86;59.12;100934.44;7389424;19;1497;-75
2024/02/25 07:53:36;;;;;;;;;;;;;;;19.90;58.95;100943.09;7388783;19;2329;-75
2024/02/25 07:56:02;;;;;;;;;;;;;;;19.92;59.01;100957.22;7390424;19;1453;-75
2024/02/25 07:58:30;;;;;;;;;;;;;;;19.90;58.95;100943.94;7388881;19;1461;-75
2024/02/25 08:00:59;;;;;;;;;;;;;;;19.91;59.20;100936.72;7387752;19;1841;-75
2024/02/25 08:03:27;;;;;;;;;;;;;;;19.91;59.14;100934.03;7393637;19;1495;-76
2024/02/25 08:05:55;;;;;;;;;;;;;;;19.89;59.12;100936.84;7391802;19;1416;-76
2024/02/25 08:08:26;;;;;;;;;;;;;;;19.89;59.01;100947.59;7390045;19;1377;-75
2024/02/25 08:10:55;;;;;;;;;;;;;;;19.92;59.12;100941.13;7394774;19;1495;-76
2024/02/25 08:13:23;;;;;;;;;;;;;;;19.85;59.23;100941.63;7395112;19;1154;-76
2024/02/25 08:15:51;;;;;;;;;;;;;;;19.75;59.40;100939.91;7395369;19;1571;-76
2024/02/25 08:18:20;;;;;;;;;;;;;;;19.63;59.76;100942.66;7394464;19;1301;-75
2024/02/25 08:20:48;;;;;;;;;;;;;;;19.51;59.98;100934.84;7394992;19;1846;-75
2024/02/25 08:23:17;;;;;;;;;;;;;;;19.39;60.23;100953.72;7395992;19;1336;-75
2024/02/25 08:25:48;;;;;;;;;;;;;;;19.42;60.20;100961.50;7393812;19;1487;-75
2024/02/25 08:28:16;;;;;;;;;;;;;;;19.35;60.37;100967.53;7395175;19;1324;-75
2024/02/25 08:30:44;;;;;;;;;;;;;;;19.12;60.76;100959.66;7387227;19;1661;-75
2024/02/25 08:33:13;;;;;;;;;;;;;;;19.20;60.68;100942.88;7394051;19;1207;-75
2024/02/25 08:35:41;;;;;;;;;;;;;;;19.11;61.35;100951.72;7395800;19;1535;-75
2024/02/25 08:38:09;;;;;;;;;;;;;;;19.11;61.24;100963.28;7395034;19;1255;-75
2024/02/25 08:40:38;;;;;;;;;;;;;;;19.18;60.91;100936.78;7393890;19;1837;-75
2024/02/25 08:43:09;;;;;;;;;;;;;;;19.20;60.82;100941.06;7395439;19;1614;-75
2024/02/25 08:45:38;;;;;;;;;;;;;;;19.35;60.85;100949.59;7393852;19;1481;-75
2024/02/25 08:48:07;;;;;;;;;;;;;;;19.61;60.77;100943.78;7397532;19;1502;-75
2024/02/25 08:50:35;;;;;;;;;;;;;;;19.68;60.73;100947.63;7399329;19;1493;-75
2024/02/25 08:53:03;;;;;;;;;;;;;;;19.51;61.07;100927.66;7400012;19;1217;-74
2024/02/25 08:55:32;;;;;;;;;;;;;;;19.50;60.99;100938.50;7396162;19;1484;-75
2024/02/25 08:58:00;;;;;;;;;;;;;;;19.43;61.03;100925.63;7397082;19;1315;-75
2024/02/25 09:00:31;;;;;;;;;;;;;;;19.34;61.31;100936.31;7396823;19;1831;-75
2024/02/25 09:02:59;;;;;;;;;;;;;;;19.15;61.88;100937.91;7395976;19;1495;-79
2024/02/25 09:05:28;;;;;;;;;;;;;;;19.12;62.43;100937.31;7398048;19;2163;-78
2024/02/25 09:07:59;;;;;;;;;;;;;;;19.23;62.14;100934.59;7402317;19;1527;-79
2024/02/25 09:10:27;;;;;;;;;;;;;;;19.37;61.85;100942.25;7396988;19;1455;-78
2024/02/25 09:12:57;;;;;;;;;;;;;;;19.35;61.56;100928.16;7396575;19;1542;-78
2024/02/25 09:15:26;;;;;;;;;;;;;;;19.39;61.67;100923.38;7402602;19;1421;-78
2024/02/25 09:17:58;;;;;;;;;;;;;;;19.63;61.03;100923.88;7402734;19;1809;-78
2024/02/25 09:20:29;;;;;;;;;;;;;;;19.90;60.11;100926.97;7398709;19;1849;-78
2024/02/25 09:23:00;;;;;;;;;;;;;;;19.76;60.48;100931.75;7400778;19;1206;-79
2024/02/25 09:25:33;;;;;;;;;;;;;;;19.68;60.46;100928.84;7398871;19;1545;-78
2024/02/25 09:28:02;;;;;;;;;;;;;;;19.51;61.10;100956.31;7398499;19;1512;-76
2024/02/25 09:30:30;;;;;;;;;;;;;;;19.34;61.59;100953.28;7384060;19;1810;-76
2024/02/25 09:33:01;;;;;;;;;;;;;;;19.36;61.40;100940.59;7394357;19;1386;-75
2024/02/25 09:35:31;;;;;;;;;;;;;;;19.33;61.31;100940.84;7394881;19;1316;-76
2024/02/25 09:37:59;;;;;;;;;;;;;;;19.14;61.48;100986.28;7393732;19;1333;-76
2024/02/25 09:40:27;;;;;;;;;;;;;;;19.11;61.06;100941.00;7392918;19;1845;-76
2024/02/25 09:42:56;;;;;;;;;;;;;;;19.13;61.54;100917.59;7393414;19;1253;-75
2024/02/25 09:45:25;;;;;;;;;;;;;;;19.47;59.86;100899.41;7394120;19;1142;-76
2024/02/25 09:47:54;;;;;;;;;;;;;;;19.57;59.53;100912.84;7393466;19;1852;-76
2024/02/25 09:50:25;;;;;;;;;;;;;;;19.67;59.26;100948.59;7392445;19;1253;-76
2024/02/25 09:52:54;;;;;;;;;;;;;;;19.48;59.54;100934.16;7392982;19;1539;-76
2024/02/25 09:55:22;;;;;;;;;;;;;;;19.44;59.63;100927.34;7393385;19;1610;-76
2024/02/25 09:57:50;;;;;;;;;;;;;;;19.39;59.97;100928.72;7392341;19;1484;-76
2024/02/25 10:00:20;;;;;;;;;;;;;;;19.33;60.01;100931.94;7392807;19;1521;-76
2024/02/25 10:02:48;;;;;;;;;;;;;;;19.21;60.26;100925.81;7389086;19;1837;-76
2024/02/25 10:05:17;;;;;;;;;;;;;;;19.04;60.84;100933.50;7392878;19;1570;-76
2024/02/25 10:08:02;;;;;;;;;;;;;;;19.04;60.80;100938.84;7391945;19;1287;-76
2024/02/25 10:10:33;;;;;;;;;;;;;;;19.36;60.70;100953.13;7392856;19;1545;-75
2024/02/25 10:13:03;;;;;;;;;;;;;;;19.55;60.39;100938.97;7391877;19;1569;-76
2024/02/25 10:15:31;;;;;;;;;;;;;;;19.50;60.37;100931.34;7392636;19;1138;-75
2024/02/25 10:17:59;;;;;;;;;;;;;;;19.34;60.72;100936.31;7392038;19;1850;-76
2024/02/25 10:20:28;;;;;;;;;;;;;;;19.28;60.95;100914.44;7392853;19;1208;-74
2024/02/25 10:23:10;;;;;;;;;;;;;;;19.29;60.92;100912.59;7389467;19;1867;-75
2024/02/25 10:25:38;;;;;;;;;;;;;;;19.25;60.99;100903.13;7390443;19;1567;-75
2024/02/25 10:28:16;;;;;;;;;;;;;;;19.08;61.56;100894.72;7392532;19;1583;-75
2024/02/25 10:30:59;;;;;;;;;;;;;;;19.03;61.71;100875.50;7377958;19;1682;-75
2024/02/25 10:33:27;;;;;;;;;;;;;;;19.22;61.32;100866.72;7391453;19;1647;-75
2024/02/25 10:35:59;;;;;;;;;;;;;;;19.52;60.46;100870.34;7391837;19;1556;-75
2024/02/25 10:38:30;;;;;;;;;;;;;;;19.60;60.08;100851.75;7390584;19;1357;-75
2024/02/25 10:41:00;;;;;;;;;;;;;;;19.34;60.40;100856.75;7391707;19;1824;-77
2024/02/25 10:43:28;;;;;;;;;;;;;;;19.22;59.30;100857.84;7393562;19;1336;-75
2024/02/25 10:45:59;;;;;;;;;;;;;;;18.99;59.52;100863.34;7389421;19;1824;-76
2024/02/25 10:48:28;;;;;;;;;;;;;;;18.88;59.13;100848.22;7391460;19;1497;-76
2024/02/25 10:50:56;;;;;;;;;;;;;;;19.01;59.29;100861.38;7391749;19;1678;-76
2024/02/25 10:53:28;;;;;;;;;;;;;;;19.13;58.54;100805.00;7391294;19;1481;-75
2024/02/25 10:56:00;;;;;;;;;;;;;;;19.95;58.34;100828.09;7391120;19;1496;-75
2024/02/25 10:58:28;;;;;;;;;;;;;;;19.75;58.91;100844.16;7387687;19;1379;-76
2024/02/25 11:00:57;;;;;;;;;;;;;;;19.55;58.92;100837.03;7388709;19;1868;-77
2024/02/25 11:03:26;;;;;;;;;;;;;;;19.36;58.62;100838.69;7388518;19;1323;-76
2024/02/25 11:05:57;;;;;;;;;;;;;;;19.73;57.96;100838.09;7387615;19;1489;-75
2024/02/25 11:08:29;;;;;;;;;;;;;;;20.13;57.02;100828.25;7387645;19;1455;-76
2024/02/25 11:11:02;;;;;;;;;;;;;;;20.47;56.27;100817.88;7389354;19;1760;-75
2024/02/25 11:13:30;;;;;;;;;;;;;;;20.69;56.01;100794.41;7389747;19;1513;-77
2024/02/25 11:15:58;;;;;;;;;;;;;;;20.78;55.75;100801.59;7386296;19;1223;-76
2024/02/25 11:18:27;;;;;;;;;;;;;;;20.74;55.87;100792.13;7387866;19;1366;-77
2024/02/25 11:21:17;;;;;;;;;;;;;;;20.75;55.75;100786.63;7383873;19;1837;-76
2024/02/25 11:23:46;;;;;;;;;;;;;;;20.80;55.83;100783.47;7389150;19;1686;-76
2024/02/25 11:26:27;;;;;;;;;;;;;;;20.81;55.55;100780.66;7391125;19;1141;-77
2024/02/25 11:29:10;;;;;;;;;;;;;;;20.88;55.57;100759.41;7390433;19;1449;-76
2024/02/25 11:31:56;;;;;;;;;;;;;;;20.83;55.31;100769.72;7387572;19;1119;-77
2024/02/25 11:34:26;;;;;;;;;;;;;;;20.85;55.11;100771.31;7389261;19;1351;-77
2024/02/25 11:36:55;;;;;;;;;;;;;;;20.88;54.63;100772.00;7390303;19;1464;-76
2024/02/25 11:39:26;;;;;;;;;;;;;;;20.85;54.27;100765.09;7390556;19;1876;-77
2024/02/25 11:41:55;;;;;;;;;;;;;;;20.91;54.20;100759.13;7388883;19;1866;-78
2024/02/25 11:44:24;;;;;;;;;;;;;;;20.93;54.02;100756.25;7386697;19;1763;-77
2024/02/25 11:46:56;;;;;;;;;;;;;;;20.99;53.39;100753.84;7386974;19;1634;-76
2024/02/25 11:49:25;;;;;;;;;;;;;;;20.60;52.45;100751.28;7385416;19;1929;-76
2024/02/25 11:51:54;;;;;;;;;;;;;;;20.14;52.72;100760.16;7389703;19;1321;-77
2024/02/25 11:54:22;;;;;;;;;;;;;;;19.91;51.73;100755.06;7387674;19;1698;-76
2024/02/25 11:56:51;;;;;;;;;;;;;;;19.95;51.78;100758.31;7386416;19;1179;-77
2024/02/25 11:59:20;;;;;;;;;;;;;;;19.97;51.19;100767.06;7386712;19;1758;-76
2024/02/25 12:01:49;;;;;;;;;;;;;;;20.00;50.79;100750.69;7385583;19;1854;-76
2024/02/25 12:04:21;;;;;;;;;;;;;;;19.99;50.17;100768.59;7385668;19;1910;-77
2024/02/25 12:06:51;;;;;;;;;;;;;;;19.75;50.31;100758.31;7386103;19;1430;-76
2024/02/25 12:09:19;;;;;;;;;;;;;;;19.88;50.53;100751.84;7386455;19;1726;-76
2024/02/25 12:11:48;;;;;;;;;;;;;;;19.94;50.02;100751.25;7385976;19;1452;-77
2024/02/25 12:14:20;;;;;;;;;;;;;;;19.97;49.93;100745.59;7383623;19;1660;-76
2024/02/25 12:16:49;;;;;;;;;;;;;;;20.03;49.55;100739.66;7383745;19;1433;-77
2024/02/25 12:19:18;;;;;;;;;;;;;;;20.09;48.68;100747.13;7384415;19;1389;-77
2024/02/25 12:21:51;;;;;;;;;;;;;;;20.19;49.50;100736.38;7384118;19;1847;-76
2024/02/25 12:24:19;;;;;;;;;;;;;;;20.26;49.30;100729.44;7385384;19;1754;-77
2024/02/25 12:26:52;;;;;;;;;;;;;;;20.54;48.57;100732.22;7388048;19;1670;-77
2024/02/25 12:29:21;;;;;;;;;;;;;;;20.55;48.18;100729.38;7389045;19;1478;-76
2024/02/25 12:31:50;;;;;;;;;;;;;;;20.57;47.99;100727.41;7379481;19;1701;-76
2024/02/25 12:34:18;;;;;;;;;;;;;;;20.54;47.77;100716.94;7397982;19;1733;-76
2024/02/25 12:36:47;;;;;;;;;;;;;;;20.73;47.65;100712.50;7398780;19;2113;-77
2024/02/25 12:39:20;;;;;;;;;;;;;;;20.97;47.43;100707.44;7397395;19;1524;-78
2024/02/25 12:41:56;;;;;;;;;;;;;;;21.24;47.47;100716.47;7397914;19;1911;-78
2024/02/25 12:44:25;;;;;;;;;;;;;;;21.44;47.45;100693.84;7395428;19;1826;-78
2024/02/25 12:46:53;;;;;;;;;;;;;;;21.37;47.75;100692.75;7396246;19;1877;-76
2024/02/25 12:49:22;;;;;;;;;;;;;;;20.95;48.83;100692.44;7396711;19;1035;-75
2024/02/25 12:51:50;;;;;;;;;;;;;;;20.58;49.85;100696.84;7393847;19;1836;-76
2024/02/25 12:54:21;;;;;;;;;;;;;;;20.29;50.04;100696.91;7394564;19;1676;-75
2024/02/25 12:56:49;;;;;;;;;;;;;;;20.70;50.16;100686.78;7394318;19;1802;-75
2024/02/25 12:59:18;;;;;;;;;;;;;;;21.15;49.66;100698.53;7393312;19;1671;-75